sensor_id;sensor_type;location;lat;lon;timestamp;P1;durP1;ratioP1;P2;durP2;ratioP2
27857;SDS011;16852;51.446;6.528;2022-09-12T00:00:50;2.65;;;2.42;;
27857;SDS011;16852;51.446;6.528;2022-09-12T00:02:52;4.15;;;2.80;;
27857;SDS011;16852;51.446;6.528;2022-09-12T00:04:53;3.58;;;2.85;;
27857;SDS011;16852;51.446;6.528;2022-09-12T00:06:54;3.28;;;2.55;;
27857;SDS011;16852;51.446;6.528;2022-09-12T00:08:55;3.28;;;2.95;;
27857;SDS011;16852;51.446;6.528;2022-09-12T00:10:57;4.57;;;3.55;;
27857;SDS011;16852;51.446;6.528;2022-09-12T00:13:04;4.68;;;3.47;;
27857;SDS011;16852;51.446;6.528;2022-09-12T00:15:05;5.32;;;3.40;;
27857;SDS011;16852;51.446;6.528;2022-09-12T00:17:07;5.18;;;3.50;;
27857;SDS011;16852;51.446;6.528;2022-09-12T00:19:07;3.70;;;3.20;;
27857;SDS011;16852;51.446;6.528;2022-09-12T00:21:08;3.90;;;3.25;;
27857;SDS011;16852;51.446;6.528;2022-09-12T00:23:09;3.88;;;3.25;;
27857;SDS011;16852;51.446;6.528;2022-09-12T00:25:10;3.80;;;3.35;;
27857;SDS011;16852;51.446;6.528;2022-09-12T00:27:11;5.78;;;3.72;;
27857;SDS011;16852;51.446;6.528;2022-09-12T00:29:15;3.80;;;3.17;;
27857;SDS011;16852;51.446;6.528;2022-09-12T00:31:18;4.72;;;4.15;;
27857;SDS011;16852;51.446;6.528;2022-09-12T00:33:22;4.13;;;3.53;;
27857;SDS011;16852;51.446;6.528;2022-09-12T00:35:23;4.60;;;3.35;;
27857;SDS011;16852;51.446;6.528;2022-09-12T00:37:23;5.88;;;3.33;;
27857;SDS011;16852;51.446;6.528;2022-09-12T00:39:24;3.47;;;2.78;;
27857;SDS011;16852;51.446;6.528;2022-09-12T00:41:26;3.10;;;2.80;;
27857;SDS011;16852;51.446;6.528;2022-09-12T00:43:33;4.22;;;3.47;;
27857;SDS011;16852;51.446;6.528;2022-09-12T00:45:36;4.32;;;3.38;;
27857;SDS011;16852;51.446;6.528;2022-09-12T00:47:37;3.92;;;3.17;;
27857;SDS011;16852;51.446;6.528;2022-09-12T00:51:42;3.92;;;2.95;;
27857;SDS011;16852;51.446;6.528;2022-09-12T00:53:47;4.07;;;3.13;;
27857;SDS011;16852;51.446;6.528;2022-09-12T00:55:52;3.97;;;3.25;;
27857;SDS011;16852;51.446;6.528;2022-09-12T00:57:55;3.53;;;2.83;;
27857;SDS011;16852;51.446;6.528;2022-09-12T01:00:13;3.28;;;2.97;;
27857;SDS011;16852;51.446;6.528;2022-09-12T01:02:15;3.30;;;3.00;;
27857;SDS011;16852;51.446;6.528;2022-09-12T01:04:17;6.20;;;3.30;;
27857;SDS011;16852;51.446;6.528;2022-09-12T01:06:21;3.85;;;3.42;;
27857;SDS011;16852;51.446;6.528;2022-09-12T01:08:34;5.15;;;3.42;;
27857;SDS011;16852;51.446;6.528;2022-09-12T01:10:36;3.83;;;3.30;;
27857;SDS011;16852;51.446;6.528;2022-09-12T01:14:40;3.83;;;2.90;;
27857;SDS011;16852;51.446;6.528;2022-09-12T01:16:41;4.75;;;3.33;;
27857;SDS011;16852;51.446;6.528;2022-09-12T01:21:22;5.07;;;3.30;;
27857;SDS011;16852;51.446;6.528;2022-09-12T01:26:06;3.65;;;3.28;;
27857;SDS011;16852;51.446;6.528;2022-09-12T01:35:06;3.70;;;3.10;;
27857;SDS011;16852;51.446;6.528;2022-09-12T01:39:55;4.30;;;3.40;;
27857;SDS011;16852;51.446;6.528;2022-09-12T01:46:32;4.50;;;3.55;;
27857;SDS011;16852;51.446;6.528;2022-09-12T01:48:44;4.68;;;3.45;;
27857;SDS011;16852;51.446;6.528;2022-09-12T01:51:07;5.38;;;3.55;;
27857;SDS011;16852;51.446;6.528;2022-09-12T01:53:45;3.15;;;2.85;;
27857;SDS011;16852;51.446;6.528;2022-09-12T01:55:51;4.28;;;3.40;;
27857;SDS011;16852;51.446;6.528;2022-09-12T01:58:06;3.17;;;2.83;;
27857;SDS011;16852;51.446;6.528;2022-09-12T02:00:09;4.20;;;3.35;;
27857;SDS011;16852;51.446;6.528;2022-09-12T02:02:15;3.90;;;3.45;;
27857;SDS011;16852;51.446;6.528;2022-09-12T02:04:25;3.90;;;3.53;;
27857;SDS011;16852;51.446;6.528;2022-09-12T02:06:30;5.60;;;3.35;;
27857;SDS011;16852;51.446;6.528;2022-09-12T02:08:37;6.55;;;4.15;;
27857;SDS011;16852;51.446;6.528;2022-09-12T02:11:17;3.92;;;3.53;;
27857;SDS011;16852;51.446;6.528;2022-09-12T02:13:12;6.00;;;4.03;;
27857;SDS011;16852;51.446;6.528;2022-09-12T02:15:36;5.78;;;4.00;;
27857;SDS011;16852;51.446;6.528;2022-09-12T02:17:41;5.72;;;4.38;;
27857;SDS011;16852;51.446;6.528;2022-09-12T02:19:52;6.38;;;4.60;;
27857;SDS011;16852;51.446;6.528;2022-09-12T02:21:59;5.57;;;4.50;;
27857;SDS011;16852;51.446;6.528;2022-09-12T02:24:02;5.70;;;4.63;;
27857;SDS011;16852;51.446;6.528;2022-09-12T02:26:13;6.25;;;4.18;;
27857;SDS011;16852;51.446;6.528;2022-09-12T02:28:23;4.53;;;4.00;;
27857;SDS011;16852;51.446;6.528;2022-09-12T02:30:36;5.75;;;4.22;;
27857;SDS011;16852;51.446;6.528;2022-09-12T02:32:44;6.25;;;4.22;;
27857;SDS011;16852;51.446;6.528;2022-09-12T02:35:02;5.50;;;3.88;;
27857;SDS011;16852;51.446;6.528;2022-09-12T02:37:14;8.02;;;3.90;;
27857;SDS011;16852;51.446;6.528;2022-09-12T02:39:17;5.55;;;4.00;;
27857;SDS011;16852;51.446;6.528;2022-09-12T02:41:20;5.45;;;4.20;;
27857;SDS011;16852;51.446;6.528;2022-09-12T02:43:21;4.72;;;3.90;;
27857;SDS011;16852;51.446;6.528;2022-09-12T02:45:21;5.65;;;3.92;;
27857;SDS011;16852;51.446;6.528;2022-09-12T02:49:30;5.40;;;3.70;;
27857;SDS011;16852;51.446;6.528;2022-09-12T02:51:31;5.45;;;3.78;;
27857;SDS011;16852;51.446;6.528;2022-09-12T02:53:32;6.28;;;4.05;;
27857;SDS011;16852;51.446;6.528;2022-09-12T02:55:34;6.32;;;4.10;;
27857;SDS011;16852;51.446;6.528;2022-09-12T02:57:36;6.97;;;4.30;;
27857;SDS011;16852;51.446;6.528;2022-09-12T02:59:37;5.13;;;3.65;;
27857;SDS011;16852;51.446;6.528;2022-09-12T07:30:05;29.38;;;16.40;;
27857;SDS011;16852;51.446;6.528;2022-09-12T07:32:06;31.45;;;16.77;;
27857;SDS011;16852;51.446;6.528;2022-09-12T07:34:07;31.30;;;18.42;;
27857;SDS011;16852;51.446;6.528;2022-09-12T07:36:12;30.27;;;18.45;;
27857;SDS011;16852;51.446;6.528;2022-09-12T07:38:15;31.23;;;17.75;;
27857;SDS011;16852;51.446;6.528;2022-09-12T07:40:16;25.98;;;16.17;;
27857;SDS011;16852;51.446;6.528;2022-09-12T07:42:16;22.60;;;14.88;;
27857;SDS011;16852;51.446;6.528;2022-09-12T07:44:17;23.42;;;15.23;;
27857;SDS011;16852;51.446;6.528;2022-09-12T07:46:17;23.90;;;15.13;;
27857;SDS011;16852;51.446;6.528;2022-09-12T07:48:18;22.17;;;14.70;;
27857;SDS011;16852;51.446;6.528;2022-09-12T07:50:19;22.10;;;14.05;;
27857;SDS011;16852;51.446;6.528;2022-09-12T07:52:19;22.45;;;15.05;;
27857;SDS011;16852;51.446;6.528;2022-09-12T07:54:20;23.20;;;14.68;;
27857;SDS011;16852;51.446;6.528;2022-09-12T07:56:21;21.88;;;14.18;;
27857;SDS011;16852;51.446;6.528;2022-09-12T07:58:22;20.05;;;13.30;;
27857;SDS011;16852;51.446;6.528;2022-09-12T08:00:23;18.85;;;13.02;;
27857;SDS011;16852;51.446;6.528;2022-09-12T08:02:24;19.85;;;13.07;;
27857;SDS011;16852;51.446;6.528;2022-09-12T08:04:25;21.88;;;14.25;;
27857;SDS011;16852;51.446;6.528;2022-09-12T08:06:26;20.17;;;14.15;;
27857;SDS011;16852;51.446;6.528;2022-09-12T08:08:30;22.70;;;14.30;;
27857;SDS011;16852;51.446;6.528;2022-09-12T08:10:30;21.60;;;13.90;;
27857;SDS011;16852;51.446;6.528;2022-09-12T08:12:31;18.98;;;12.90;;
27857;SDS011;16852;51.446;6.528;2022-09-12T08:14:33;20.45;;;12.55;;
27857;SDS011;16852;51.446;6.528;2022-09-12T08:16:34;19.23;;;12.90;;
27857;SDS011;16852;51.446;6.528;2022-09-12T08:18:34;17.50;;;12.68;;
27857;SDS011;16852;51.446;6.528;2022-09-12T08:20:35;17.75;;;12.77;;
27857;SDS011;16852;51.446;6.528;2022-09-12T08:22:36;23.40;;;13.88;;
27857;SDS011;16852;51.446;6.528;2022-09-12T08:24:37;16.58;;;11.73;;
27857;SDS011;16852;51.446;6.528;2022-09-12T08:26:38;17.58;;;12.50;;
27857;SDS011;16852;51.446;6.528;2022-09-12T08:28:39;17.23;;;11.75;;
27857;SDS011;16852;51.446;6.528;2022-09-12T08:30:44;17.02;;;11.48;;
27857;SDS011;16852;51.446;6.528;2022-09-12T08:32:45;19.67;;;12.70;;
27857;SDS011;16852;51.446;6.528;2022-09-12T08:34:46;20.75;;;12.80;;
27857;SDS011;16852;51.446;6.528;2022-09-12T08:36:46;15.90;;;11.88;;
27857;SDS011;16852;51.446;6.528;2022-09-12T08:38:48;17.10;;;10.70;;
27857;SDS011;16852;51.446;6.528;2022-09-12T08:43:13;16.65;;;10.93;;
27857;SDS011;16852;51.446;6.528;2022-09-12T08:45:37;15.82;;;10.27;;
27857;SDS011;16852;51.446;6.528;2022-09-12T08:47:57;15.68;;;10.10;;
27857;SDS011;16852;51.446;6.528;2022-09-12T08:50:19;19.17;;;11.25;;
27857;SDS011;16852;51.446;6.528;2022-09-12T08:54:37;12.65;;;8.85;;
27857;SDS011;16852;51.446;6.528;2022-09-12T08:56:38;15.18;;;9.77;;
27857;SDS011;16852;51.446;6.528;2022-09-12T08:58:40;13.32;;;9.63;;
27857;SDS011;16852;51.446;6.528;2022-09-12T09:00:46;12.20;;;9.20;;
27857;SDS011;16852;51.446;6.528;2022-09-12T09:03:07;13.73;;;9.70;;
27857;SDS011;16852;51.446;6.528;2022-09-12T09:05:53;14.05;;;9.23;;
27857;SDS011;16852;51.446;6.528;2022-09-12T09:15:21;12.77;;;9.18;;
27857;SDS011;16852;51.446;6.528;2022-09-12T09:17:41;9.98;;;7.85;;
27857;SDS011;16852;51.446;6.528;2022-09-12T09:19:50;10.63;;;7.30;;
27857;SDS011;16852;51.446;6.528;2022-09-12T09:22:01;13.93;;;9.32;;
27857;SDS011;16852;51.446;6.528;2022-09-12T09:24:07;10.88;;;8.13;;
27857;SDS011;16852;51.446;6.528;2022-09-12T09:26:12;10.40;;;7.55;;
27857;SDS011;16852;51.446;6.528;2022-09-12T09:28:27;12.50;;;8.20;;
27857;SDS011;16852;51.446;6.528;2022-09-12T09:30:45;12.68;;;8.80;;
27857;SDS011;16852;51.446;6.528;2022-09-12T09:32:48;10.55;;;7.90;;
27857;SDS011;16852;51.446;6.528;2022-09-12T09:34:51;9.48;;;6.97;;
27857;SDS011;16852;51.446;6.528;2022-09-12T09:37:04;9.02;;;6.65;;
27857;SDS011;16852;51.446;6.528;2022-09-12T09:44:08;9.23;;;6.45;;
27857;SDS011;16852;51.446;6.528;2022-09-12T09:46:09;11.38;;;6.65;;
27857;SDS011;16852;51.446;6.528;2022-09-12T09:50:19;6.85;;;5.55;;
27857;SDS011;16852;51.446;6.528;2022-09-12T09:52:23;8.38;;;6.22;;
27857;SDS011;16852;51.446;6.528;2022-09-12T09:54:28;9.52;;;6.55;;
27857;SDS011;16852;51.446;6.528;2022-09-12T09:56:43;8.50;;;6.05;;
27857;SDS011;16852;51.446;6.528;2022-09-12T09:58:44;10.70;;;7.00;;
27857;SDS011;16852;51.446;6.528;2022-09-12T10:00:44;7.32;;;5.72;;
27857;SDS011;16852;51.446;6.528;2022-09-12T10:02:57;7.07;;;5.60;;
27857;SDS011;16852;51.446;6.528;2022-09-12T10:05:15;9.25;;;6.80;;
27857;SDS011;16852;51.446;6.528;2022-09-12T10:07:16;7.03;;;5.32;;
27857;SDS011;16852;51.446;6.528;2022-09-12T10:11:23;7.65;;;5.40;;
27857;SDS011;16852;51.446;6.528;2022-09-12T10:13:40;10.23;;;5.70;;
27857;SDS011;16852;51.446;6.528;2022-09-12T10:15:57;9.63;;;6.35;;
27857;SDS011;16852;51.446;6.528;2022-09-12T10:18:03;7.88;;;5.80;;
27857;SDS011;16852;51.446;6.528;2022-09-12T10:20:04;7.13;;;5.03;;
27857;SDS011;16852;51.446;6.528;2022-09-12T10:22:25;9.13;;;5.60;;
27857;SDS011;16852;51.446;6.528;2022-09-12T10:24:35;8.25;;;6.10;;
27857;SDS011;16852;51.446;6.528;2022-09-12T10:26:48;7.38;;;5.07;;
27857;SDS011;16852;51.446;6.528;2022-09-12T10:28:57;6.57;;;5.03;;
27857;SDS011;16852;51.446;6.528;2022-09-12T10:31:14;6.00;;;4.85;;
27857;SDS011;16852;51.446;6.528;2022-09-12T10:33:28;6.75;;;4.90;;
27857;SDS011;16852;51.446;6.528;2022-09-12T10:35:29;6.13;;;4.45;;
27857;SDS011;16852;51.446;6.528;2022-09-12T10:37:41;8.35;;;4.45;;
27857;SDS011;16852;51.446;6.528;2022-09-12T10:40:06;5.50;;;4.03;;
27857;SDS011;16852;51.446;6.528;2022-09-12T10:44:52;7.15;;;5.00;;
27857;SDS011;16852;51.446;6.528;2022-09-12T10:46:54;7.40;;;5.07;;
27857;SDS011;16852;51.446;6.528;2022-09-12T10:49:13;5.90;;;4.55;;
27857;SDS011;16852;51.446;6.528;2022-09-12T10:51:46;5.82;;;4.70;;
27857;SDS011;16852;51.446;6.528;2022-09-12T10:53:47;5.40;;;4.30;;
27857;SDS011;16852;51.446;6.528;2022-09-12T10:58:16;4.97;;;4.25;;
27857;SDS011;16852;51.446;6.528;2022-09-12T11:00:29;5.30;;;3.72;;
27857;SDS011;16852;51.446;6.528;2022-09-12T11:05:13;6.85;;;4.20;;
27857;SDS011;16852;51.446;6.528;2022-09-12T11:07:48;9.05;;;3.85;;
27857;SDS011;16852;51.446;6.528;2022-09-12T11:23:59;3.63;;;3.17;;
27857;SDS011;16852;51.446;6.528;2022-09-12T11:28:34;4.30;;;2.83;;
27857;SDS011;16852;51.446;6.528;2022-09-12T11:35:25;5.55;;;3.50;;
27857;SDS011;16852;51.446;6.528;2022-09-12T11:39:49;6.03;;;3.45;;
27857;SDS011;16852;51.446;6.528;2022-09-12T11:41:55;5.20;;;3.10;;
27857;SDS011;16852;51.446;6.528;2022-09-12T11:44:01;3.67;;;2.72;;
27857;SDS011;16852;51.446;6.528;2022-09-12T11:46:26;4.85;;;3.33;;
27857;SDS011;16852;51.446;6.528;2022-09-12T11:48:32;4.65;;;3.15;;
27857;SDS011;16852;51.446;6.528;2022-09-12T11:50:39;4.30;;;2.90;;
27857;SDS011;16852;51.446;6.528;2022-09-12T11:52:39;4.40;;;2.83;;
27857;SDS011;16852;51.446;6.528;2022-09-12T11:54:41;3.00;;;2.20;;
27857;SDS011;16852;51.446;6.528;2022-09-12T11:57:03;4.38;;;2.50;;
27857;SDS011;16852;51.446;6.528;2022-09-12T11:59:10;4.00;;;2.00;;
27857;SDS011;16852;51.446;6.528;2022-09-12T12:01:27;2.83;;;2.30;;
27857;SDS011;16852;51.446;6.528;2022-09-12T12:03:36;5.15;;;2.05;;
27857;SDS011;16852;51.446;6.528;2022-09-12T12:07:55;2.83;;;2.00;;
27857;SDS011;16852;51.446;6.528;2022-09-12T12:09:57;5.65;;;1.65;;
27857;SDS011;16852;51.446;6.528;2022-09-12T12:11:58;2.88;;;2.05;;
27857;SDS011;16852;51.446;6.528;2022-09-12T12:14:11;3.03;;;1.85;;
27857;SDS011;16852;51.446;6.528;2022-09-12T12:20:23;3.20;;;2.40;;
27857;SDS011;16852;51.446;6.528;2022-09-12T12:22:23;2.95;;;1.90;;
27857;SDS011;16852;51.446;6.528;2022-09-12T12:24:25;3.00;;;1.92;;
27857;SDS011;16852;51.446;6.528;2022-09-12T12:33:01;2.45;;;1.85;;
27857;SDS011;16852;51.446;6.528;2022-09-12T12:35:35;3.17;;;2.00;;
27857;SDS011;16852;51.446;6.528;2022-09-12T12:37:49;1.95;;;1.40;;
27857;SDS011;16852;51.446;6.528;2022-09-12T12:39:58;2.20;;;1.70;;
27857;SDS011;16852;51.446;6.528;2022-09-12T12:42:06;2.50;;;1.95;;
27857;SDS011;16852;51.446;6.528;2022-09-12T12:46:45;4.90;;;2.22;;
27857;SDS011;16852;51.446;6.528;2022-09-12T12:49:19;2.25;;;1.60;;
27857;SDS011;16852;51.446;6.528;2022-09-12T12:51:33;2.20;;;1.67;;
27857;SDS011;16852;51.446;6.528;2022-09-12T12:53:56;2.38;;;1.88;;
27857;SDS011;16852;51.446;6.528;2022-09-12T12:55:57;2.50;;;1.80;;
27857;SDS011;16852;51.446;6.528;2022-09-12T12:58:01;2.90;;;1.75;;
27857;SDS011;16852;51.446;6.528;2022-09-12T13:00:05;2.83;;;1.70;;
27857;SDS011;16852;51.446;6.528;2022-09-12T13:04:34;1.80;;;1.20;;
27857;SDS011;16852;51.446;6.528;2022-09-12T13:06:35;1.52;;;1.27;;
27857;SDS011;16852;51.446;6.528;2022-09-12T13:08:42;2.42;;;1.40;;
27857;SDS011;16852;51.446;6.528;2022-09-12T13:13:07;2.70;;;1.80;;
27857;SDS011;16852;51.446;6.528;2022-09-12T13:17:37;2.60;;;1.70;;
27857;SDS011;16852;51.446;6.528;2022-09-12T13:19:40;3.25;;;1.90;;
27857;SDS011;16852;51.446;6.528;2022-09-12T13:21:58;7.28;;;1.67;;
27857;SDS011;16852;51.446;6.528;2022-09-12T13:24:05;1.58;;;1.38;;
27857;SDS011;16852;51.446;6.528;2022-09-12T13:26:23;4.05;;;2.10;;
27857;SDS011;16852;51.446;6.528;2022-09-12T13:28:28;3.20;;;1.88;;
27857;SDS011;16852;51.446;6.528;2022-09-12T13:30:30;2.85;;;1.70;;
27857;SDS011;16852;51.446;6.528;2022-09-12T13:32:35;2.25;;;1.63;;
27857;SDS011;16852;51.446;6.528;2022-09-12T13:34:40;2.70;;;1.67;;
27857;SDS011;16852;51.446;6.528;2022-09-12T13:39:20;3.63;;;2.00;;
27857;SDS011;16852;51.446;6.528;2022-09-12T13:43:41;2.35;;;1.85;;
27857;SDS011;16852;51.446;6.528;2022-09-12T13:45:44;3.25;;;1.88;;
27857;SDS011;16852;51.446;6.528;2022-09-12T13:49:49;3.40;;;1.80;;
27857;SDS011;16852;51.446;6.528;2022-09-12T13:52:00;2.33;;;1.73;;
27857;SDS011;16852;51.446;6.528;2022-09-12T13:54:15;2.78;;;1.70;;
27857;SDS011;16852;51.446;6.528;2022-09-12T13:56:18;2.92;;;1.85;;
27857;SDS011;16852;51.446;6.528;2022-09-12T14:00:31;3.00;;;1.83;;
27857;SDS011;16852;51.446;6.528;2022-09-12T14:02:34;3.03;;;1.95;;
27857;SDS011;16852;51.446;6.528;2022-09-12T14:04:36;3.03;;;2.10;;
27857;SDS011;16852;51.446;6.528;2022-09-12T14:06:56;3.20;;;2.20;;
27857;SDS011;16852;51.446;6.528;2022-09-12T14:11:00;5.90;;;2.40;;
27857;SDS011;16852;51.446;6.528;2022-09-12T14:13:17;3.63;;;2.30;;
27857;SDS011;16852;51.446;6.528;2022-09-12T14:17:26;3.38;;;2.10;;
27857;SDS011;16852;51.446;6.528;2022-09-12T14:19:31;3.42;;;2.08;;
27857;SDS011;16852;51.446;6.528;2022-09-12T14:21:34;4.65;;;2.30;;
27857;SDS011;16852;51.446;6.528;2022-09-12T14:23:39;3.63;;;2.33;;
27857;SDS011;16852;51.446;6.528;2022-09-12T14:25:41;5.70;;;2.72;;
27857;SDS011;16852;51.446;6.528;2022-09-12T14:27:49;3.40;;;2.35;;
27857;SDS011;16852;51.446;6.528;2022-09-12T14:30:06;2.65;;;2.10;;
27857;SDS011;16852;51.446;6.528;2022-09-12T14:32:21;2.22;;;2.03;;
27857;SDS011;16852;51.446;6.528;2022-09-12T14:34:23;3.15;;;2.38;;
27857;SDS011;16852;51.446;6.528;2022-09-12T14:36:25;2.95;;;2.20;;
27857;SDS011;16852;51.446;6.528;2022-09-12T14:40:40;3.05;;;2.50;;
27857;SDS011;16852;51.446;6.528;2022-09-12T14:42:43;3.85;;;2.33;;
27857;SDS011;16852;51.446;6.528;2022-09-12T14:44:54;3.10;;;2.25;;
27857;SDS011;16852;51.446;6.528;2022-09-12T14:46:59;5.70;;;2.90;;
27857;SDS011;16852;51.446;6.528;2022-09-12T14:49:33;3.60;;;2.50;;
27857;SDS011;16852;51.446;6.528;2022-09-12T14:51:36;3.57;;;2.40;;
27857;SDS011;16852;51.446;6.528;2022-09-12T14:53:45;6.95;;;2.40;;
27857;SDS011;16852;51.446;6.528;2022-09-12T14:55:51;3.10;;;2.10;;
27857;SDS011;16852;51.446;6.528;2022-09-12T14:58:13;3.05;;;2.25;;
27857;SDS011;16852;51.446;6.528;2022-09-12T15:00:21;3.30;;;2.03;;
27857;SDS011;16852;51.446;6.528;2022-09-12T15:02:24;3.25;;;2.42;;
27857;SDS011;16852;51.446;6.528;2022-09-12T15:04:41;3.92;;;2.45;;
27857;SDS011;16852;51.446;6.528;2022-09-12T15:06:45;2.45;;;1.77;;
27857;SDS011;16852;51.446;6.528;2022-09-12T15:08:45;4.80;;;2.53;;
27857;SDS011;16852;51.446;6.528;2022-09-12T15:10:46;3.05;;;2.30;;
27857;SDS011;16852;51.446;6.528;2022-09-12T15:12:47;1.98;;;1.73;;
27857;SDS011;16852;51.446;6.528;2022-09-12T15:14:48;3.38;;;2.10;;
27857;SDS011;16852;51.446;6.528;2022-09-12T15:16:49;2.30;;;2.00;;
27857;SDS011;16852;51.446;6.528;2022-09-12T15:18:49;2.25;;;2.05;;
27857;SDS011;16852;51.446;6.528;2022-09-12T15:21:11;1.90;;;1.70;;
27857;SDS011;16852;51.446;6.528;2022-09-12T15:23:17;2.65;;;1.73;;
27857;SDS011;16852;51.446;6.528;2022-09-12T15:25:21;4.68;;;2.10;;
27857;SDS011;16852;51.446;6.528;2022-09-12T15:27:22;2.25;;;1.73;;
27857;SDS011;16852;51.446;6.528;2022-09-12T15:29:25;2.20;;;1.73;;
27857;SDS011;16852;51.446;6.528;2022-09-12T15:31:29;3.13;;;1.80;;
27857;SDS011;16852;51.446;6.528;2022-09-12T15:33:31;2.20;;;1.63;;
27857;SDS011;16852;51.446;6.528;2022-09-12T15:35:31;2.60;;;2.00;;
27857;SDS011;16852;51.446;6.528;2022-09-12T15:37:32;2.65;;;2.00;;
27857;SDS011;16852;51.446;6.528;2022-09-12T15:39:33;2.40;;;1.80;;
27857;SDS011;16852;51.446;6.528;2022-09-12T15:41:34;1.77;;;1.55;;
27857;SDS011;16852;51.446;6.528;2022-09-12T15:43:36;2.85;;;2.13;;
27857;SDS011;16852;51.446;6.528;2022-09-12T15:45:37;2.58;;;1.67;;
27857;SDS011;16852;51.446;6.528;2022-09-12T15:47:37;1.88;;;1.60;;
27857;SDS011;16852;51.446;6.528;2022-09-12T15:49:38;2.10;;;1.75;;
27857;SDS011;16852;51.446;6.528;2022-09-12T15:51:39;2.40;;;1.77;;
27857;SDS011;16852;51.446;6.528;2022-09-12T15:53:40;1.65;;;1.55;;
27857;SDS011;16852;51.446;6.528;2022-09-12T15:55:41;1.95;;;1.50;;
27857;SDS011;16852;51.446;6.528;2022-09-12T15:57:42;3.92;;;1.70;;
27857;SDS011;16852;51.446;6.528;2022-09-12T15:59:43;1.85;;;1.60;;
27857;SDS011;16852;51.446;6.528;2022-09-12T16:01:44;3.85;;;2.58;;
27857;SDS011;16852;51.446;6.528;2022-09-12T16:03:45;2.83;;;1.90;;
27857;SDS011;16852;51.446;6.528;2022-09-12T16:05:46;2.67;;;1.70;;
27857;SDS011;16852;51.446;6.528;2022-09-12T16:07:49;2.00;;;1.70;;
27857;SDS011;16852;51.446;6.528;2022-09-12T16:09:52;2.13;;;1.85;;
27857;SDS011;16852;51.446;6.528;2022-09-12T16:11:52;3.03;;;1.73;;
27857;SDS011;16852;51.446;6.528;2022-09-12T16:13:54;4.72;;;1.90;;
27857;SDS011;16852;51.446;6.528;2022-09-12T16:15:56;2.53;;;1.80;;
27857;SDS011;16852;51.446;6.528;2022-09-12T16:17:57;2.42;;;1.80;;
27857;SDS011;16852;51.446;6.528;2022-09-12T16:19:57;2.25;;;1.73;;
27857;SDS011;16852;51.446;6.528;2022-09-12T16:21:58;2.22;;;1.80;;
27857;SDS011;16852;51.446;6.528;2022-09-12T16:23:58;2.97;;;1.63;;
27857;SDS011;16852;51.446;6.528;2022-09-12T16:26:00;2.85;;;1.85;;
27857;SDS011;16852;51.446;6.528;2022-09-12T16:28:03;2.97;;;2.05;;
27857;SDS011;16852;51.446;6.528;2022-09-12T16:30:07;2.22;;;2.03;;
27857;SDS011;16852;51.446;6.528;2022-09-12T16:32:09;2.58;;;1.63;;
27857;SDS011;16852;51.446;6.528;2022-09-12T16:34:09;2.70;;;1.83;;
27857;SDS011;16852;51.446;6.528;2022-09-12T16:36:12;1.85;;;1.67;;
27857;SDS011;16852;51.446;6.528;2022-09-12T16:38:14;3.42;;;1.58;;
27857;SDS011;16852;51.446;6.528;2022-09-12T16:40:14;2.55;;;1.63;;
27857;SDS011;16852;51.446;6.528;2022-09-12T16:42:16;2.05;;;1.80;;
27857;SDS011;16852;51.446;6.528;2022-09-12T16:44:18;1.95;;;1.83;;
27857;SDS011;16852;51.446;6.528;2022-09-12T16:46:20;2.67;;;1.90;;
27857;SDS011;16852;51.446;6.528;2022-09-12T16:48:25;2.00;;;1.55;;
27857;SDS011;16852;51.446;6.528;2022-09-12T16:50:25;3.38;;;1.85;;
27857;SDS011;16852;51.446;6.528;2022-09-12T16:52:28;2.63;;;1.63;;
27857;SDS011;16852;51.446;6.528;2022-09-12T16:54:29;4.07;;;2.00;;
27857;SDS011;16852;51.446;6.528;2022-09-12T16:56:29;2.40;;;1.85;;
27857;SDS011;16852;51.446;6.528;2022-09-12T16:58:31;3.75;;;2.00;;
27857;SDS011;16852;51.446;6.528;2022-09-12T17:00:32;2.35;;;1.73;;
27857;SDS011;16852;51.446;6.528;2022-09-12T17:02:33;2.97;;;2.03;;
27857;SDS011;16852;51.446;6.528;2022-09-12T17:04:33;1.90;;;1.70;;
27857;SDS011;16852;51.446;6.528;2022-09-12T17:06:34;3.05;;;1.88;;
27857;SDS011;16852;51.446;6.528;2022-09-12T17:08:36;2.05;;;1.60;;
27857;SDS011;16852;51.446;6.528;2022-09-12T17:10:39;2.85;;;1.88;;
27857;SDS011;16852;51.446;6.528;2022-09-12T17:12:40;2.27;;;1.77;;
27857;SDS011;16852;51.446;6.528;2022-09-12T17:14:41;3.45;;;1.80;;
27857;SDS011;16852;51.446;6.528;2022-09-12T17:16:42;2.10;;;1.88;;
27857;SDS011;16852;51.446;6.528;2022-09-12T17:18:44;2.72;;;1.63;;
27857;SDS011;16852;51.446;6.528;2022-09-12T17:20:45;1.75;;;1.60;;
27857;SDS011;16852;51.446;6.528;2022-09-12T17:22:46;2.85;;;1.83;;
27857;SDS011;16852;51.446;6.528;2022-09-12T17:24:47;1.63;;;1.42;;
27857;SDS011;16852;51.446;6.528;2022-09-12T17:26:47;2.33;;;1.63;;
27857;SDS011;16852;51.446;6.528;2022-09-12T17:28:48;2.85;;;1.70;;
27857;SDS011;16852;51.446;6.528;2022-09-12T17:30:56;2.42;;;1.70;;
27857;SDS011;16852;51.446;6.528;2022-09-12T17:33:01;2.47;;;1.75;;
27857;SDS011;16852;51.446;6.528;2022-09-12T17:35:02;1.88;;;1.67;;
27857;SDS011;16852;51.446;6.528;2022-09-12T17:37:03;2.05;;;1.50;;
27857;SDS011;16852;51.446;6.528;2022-09-12T17:39:03;1.90;;;1.65;;
27857;SDS011;16852;51.446;6.528;2022-09-12T17:41:08;2.55;;;1.50;;
27857;SDS011;16852;51.446;6.528;2022-09-12T17:43:16;1.70;;;1.60;;
27857;SDS011;16852;51.446;6.528;2022-09-12T17:45:16;2.45;;;1.65;;
27857;SDS011;16852;51.446;6.528;2022-09-12T17:47:17;2.00;;;1.80;;
27857;SDS011;16852;51.446;6.528;2022-09-12T17:49:17;2.90;;;1.98;;
27857;SDS011;16852;51.446;6.528;2022-09-12T17:51:21;1.80;;;1.70;;
27857;SDS011;16852;51.446;6.528;2022-09-12T17:53:24;2.00;;;1.70;;
27857;SDS011;16852;51.446;6.528;2022-09-12T17:55:25;2.00;;;1.80;;
27857;SDS011;16852;51.446;6.528;2022-09-12T17:57:26;5.43;;;2.00;;
27857;SDS011;16852;51.446;6.528;2022-09-12T17:59:27;1.85;;;1.70;;
27857;SDS011;16852;51.446;6.528;2022-09-12T18:01:28;2.03;;;1.83;;
27857;SDS011;16852;51.446;6.528;2022-09-12T18:03:48;2.70;;;1.80;;
27857;SDS011;16852;51.446;6.528;2022-09-12T18:05:52;1.77;;;1.67;;
27857;SDS011;16852;51.446;6.528;2022-09-12T18:07:54;3.65;;;2.08;;
27857;SDS011;16852;51.446;6.528;2022-09-12T18:09:55;1.83;;;1.70;;
27857;SDS011;16852;51.446;6.528;2022-09-12T18:11:57;1.80;;;1.70;;
27857;SDS011;16852;51.446;6.528;2022-09-12T18:13:58;1.83;;;1.63;;
27857;SDS011;16852;51.446;6.528;2022-09-12T18:16:03;3.08;;;2.28;;
27857;SDS011;16852;51.446;6.528;2022-09-12T18:18:08;2.65;;;2.13;;
27857;SDS011;16852;51.446;6.528;2022-09-12T18:20:09;2.15;;;1.58;;
27857;SDS011;16852;51.446;6.528;2022-09-12T18:22:09;3.42;;;2.08;;
27857;SDS011;16852;51.446;6.528;2022-09-12T18:24:10;2.53;;;1.83;;
27857;SDS011;16852;51.446;6.528;2022-09-12T18:26:11;2.10;;;1.85;;
27857;SDS011;16852;51.446;6.528;2022-09-12T18:28:12;2.60;;;1.85;;
27857;SDS011;16852;51.446;6.528;2022-09-12T18:30:13;1.75;;;1.60;;
27857;SDS011;16852;51.446;6.528;2022-09-12T18:32:16;2.13;;;1.80;;
27857;SDS011;16852;51.446;6.528;2022-09-12T18:34:16;2.10;;;1.73;;
27857;SDS011;16852;51.446;6.528;2022-09-12T18:36:17;3.45;;;2.22;;
27857;SDS011;16852;51.446;6.528;2022-09-12T18:38:19;3.33;;;2.08;;
27857;SDS011;16852;51.446;6.528;2022-09-12T18:40:19;2.63;;;2.10;;
27857;SDS011;16852;51.446;6.528;2022-09-12T18:42:20;3.72;;;1.70;;
27857;SDS011;16852;51.446;6.528;2022-09-12T18:44:20;4.32;;;1.98;;
27857;SDS011;16852;51.446;6.528;2022-09-12T18:46:21;1.98;;;1.80;;
27857;SDS011;16852;51.446;6.528;2022-09-12T18:48:22;2.08;;;1.85;;
27857;SDS011;16852;51.446;6.528;2022-09-12T18:50:23;2.03;;;1.80;;
27857;SDS011;16852;51.446;6.528;2022-09-12T18:52:23;2.13;;;1.83;;
27857;SDS011;16852;51.446;6.528;2022-09-12T18:54:24;3.92;;;2.10;;
27857;SDS011;16852;51.446;6.528;2022-09-12T18:56:26;3.63;;;2.00;;